createdAt,value
2018-03-24T00:00:55.727Z,7.23
2018-03-24T00:01:55.791Z,7.21
2018-03-24T00:02:55.863Z,7.21
2018-03-24T00:03:55.911Z,7.24
2018-03-24T00:04:55.967Z,7.24
2018-03-24T00:05:56.043Z,7.20
2018-03-24T00:06:56.127Z,7.24
2018-03-24T00:07:56.155Z,7.21
2018-03-24T00:08:56.211Z,7.15
2018-03-24T00:09:56.275Z,7.17
2018-03-24T00:10:56.335Z,7.17
2018-03-24T00:11:56.407Z,7.15
2018-03-24T00:12:56.467Z,7.11
2018-03-24T00:13:56.523Z,7.21
2018-03-24T00:14:56.579Z,7.18
2018-03-24T00:15:56.659Z,7.15
2018-03-24T00:16:56.711Z,7.20
2018-03-24T00:17:56.767Z,7.18
2018-03-24T00:18:56.823Z,7.17
2018-03-24T00:19:56.875Z,7.17
2018-03-24T00:20:56.951Z,7.20
2018-03-24T00:21:57.040Z,7.18
2018-03-24T00:22:57.168Z,7.17
2018-03-24T00:23:59.700Z,7.15
2018-03-24T00:24:57.215Z,7.24
2018-03-24T00:25:57.301Z,7.21
2018-03-24T00:26:57.500Z,7.21
2018-03-24T00:27:57.396Z,7.21
2018-03-24T00:28:57.472Z,7.15
2018-03-24T00:29:57.516Z,7.23
2018-03-24T00:30:57.616Z,7.23
2018-03-24T00:31:57.682Z,7.15
2018-03-24T00:32:57.743Z,7.20
2018-03-24T00:33:57.808Z,7.14
2018-03-24T00:34:57.928Z,7.18
2018-03-24T00:35:57.888Z,7.15
2018-03-24T00:36:57.968Z,7.07
2018-03-24T00:37:58.024Z,7.14
2018-03-24T00:38:58.060Z,7.13
2018-03-24T00:39:58.116Z,7.14
2018-03-24T00:40:58.180Z,7.11
2018-03-24T00:41:58.428Z,7.17
2018-03-24T00:42:58.309Z,7.14
2018-03-24T00:43:58.365Z,7.15
2018-03-24T00:44:58.433Z,7.07
2018-03-24T00:45:58.471Z,7.13
2018-03-24T00:46:58.612Z,7.23
2018-03-24T00:47:58.616Z,7.14
2018-03-24T00:48:58.689Z,7.21
2018-03-24T00:49:58.766Z,7.23
2018-03-24T00:50:58.812Z,7.18
2018-03-24T00:51:59.141Z,7.20
2018-03-24T00:52:58.968Z,7.17
2018-03-24T00:53:59.009Z,7.18
2018-03-24T00:54:59.047Z,7.15
2018-03-24T00:55:59.104Z,7.10
2018-03-24T00:56:59.164Z,7.06
2018-03-24T00:57:59.280Z,7.24
2018-03-24T00:58:59.277Z,7.11
2018-03-24T00:59:59.406Z,7.17
2018-03-24T01:00:59.457Z,7.03
2018-03-24T01:01:59.459Z,7.06
2018-03-24T01:02:59.537Z,7.13
2018-03-24T01:03:59.609Z,7.03
2018-03-24T01:04:59.679Z,7.06
2018-03-24T01:05:59.697Z,7.10
2018-03-24T01:06:59.797Z,7.00
2018-03-24T01:07:59.829Z,6.96
2018-03-24T01:08:59.914Z,6.92
2018-03-24T01:09:59.970Z,6.84
2018-03-24T01:11:00.042Z,6.82
2018-03-24T01:12:00.110Z,6.84
2018-03-24T01:13:00.270Z,6.85
2018-03-24T01:14:00.190Z,6.88
2018-03-24T01:15:00.241Z,6.82
2018-03-24T01:16:00.305Z,6.85
2018-03-24T01:17:00.439Z,6.87
2018-03-24T01:18:00.434Z,6.88
2018-03-24T01:19:00.526Z,6.85
2018-03-24T01:20:00.553Z,6.77
2018-03-24T01:21:00.654Z,6.77
2018-03-24T01:22:00.678Z,6.64
2018-03-24T01:23:00.790Z,6.74
2018-03-24T01:24:00.814Z,6.74
2018-03-24T01:25:00.908Z,6.62
2018-03-24T01:26:00.922Z,6.60
2018-03-24T01:27:01.026Z,6.57
2018-03-24T01:28:01.070Z,6.54
2018-03-24T01:29:01.342Z,6.51
2018-03-24T01:30:01.166Z,6.54
2018-03-24T01:31:01.201Z,6.57
2018-03-24T01:32:01.327Z,6.49
2018-03-24T01:33:01.360Z,6.63
2018-03-24T01:34:01.455Z,6.60
2018-03-24T01:35:01.485Z,6.69
2018-03-24T01:36:01.519Z,6.63
2018-03-24T01:37:01.700Z,6.70
2018-03-24T01:38:01.690Z,6.69
2018-03-24T01:39:01.754Z,6.66
2018-03-24T01:40:01.777Z,6.62
2018-03-24T01:41:01.818Z,6.67
2018-03-24T01:42:01.887Z,6.60
2018-03-24T01:43:01.955Z,6.81
2018-03-24T01:44:02.068Z,6.63
2018-03-24T01:45:02.063Z,6.66
2018-03-24T01:46:02.151Z,6.70
2018-03-24T01:47:02.171Z,6.66
2018-03-24T01:48:02.286Z,6.75
2018-03-24T01:49:02.311Z,6.67
2018-03-24T01:50:02.387Z,6.75
2018-03-24T01:51:02.462Z,6.66
2018-03-24T01:52:02.507Z,6.67
2018-03-24T01:53:02.601Z,6.64
2018-03-24T01:54:02.621Z,6.62
2018-03-24T01:55:02.695Z,6.67
2018-03-24T01:56:02.760Z,6.57
2018-03-24T01:57:02.871Z,6.66
2018-03-24T01:58:02.875Z,6.66
2018-03-24T01:59:02.916Z,6.60
2018-03-24T02:00:02.987Z,6.57
2018-03-24T02:01:03.051Z,6.60
2018-03-24T02:02:03.107Z,6.56
2018-03-24T02:03:03.182Z,6.56
2018-03-24T02:04:03.200Z,6.44
2018-03-24T02:05:03.275Z,6.38
2018-03-24T02:06:04.166Z,6.44
2018-03-24T02:07:03.368Z,6.38
2018-03-24T02:08:03.483Z,6.33
2018-03-24T02:09:03.491Z,6.30
2018-03-24T02:10:03.636Z,6.11
2018-03-24T02:11:03.636Z,6.05
2018-03-24T02:12:03.667Z,6.07
2018-03-24T02:13:03.755Z,6.01
2018-03-24T02:14:03.813Z,5.93
2018-03-24T02:15:03.888Z,5.91
2018-03-24T02:16:03.964Z,5.82
2018-03-24T02:17:04.005Z,5.89
2018-03-24T02:18:04.059Z,5.79
2018-03-24T02:19:04.179Z,5.71
2018-03-24T02:20:04.172Z,5.69
2018-03-24T02:21:04.210Z,5.73
2018-03-24T02:22:04.328Z,5.62
2018-03-24T02:23:04.403Z,5.64
2018-03-24T02:24:04.440Z,5.53
2018-03-24T02:25:04.480Z,5.57
2018-03-24T02:26:04.760Z,5.51
2018-03-24T02:27:04.615Z,5.35
2018-03-24T02:28:04.648Z,5.38
2018-03-24T02:29:04.712Z,5.44
2018-03-24T02:30:04.777Z,5.39
2018-03-24T02:31:04.812Z,5.32
2018-03-24T02:32:04.872Z,5.38
2018-03-24T02:33:04.961Z,5.29
2018-03-24T02:34:05.096Z,5.32
2018-03-24T02:35:05.126Z,5.35
2018-03-24T02:36:05.167Z,5.25
2018-03-24T02:37:05.182Z,5.26
2018-03-24T02:38:05.241Z,5.12
2018-03-24T02:39:05.540Z,5.10
2018-03-24T02:40:05.459Z,5.12
2018-03-24T02:41:05.489Z,5.07
2018-03-24T02:42:05.477Z,5.15
2018-03-24T02:43:05.553Z,4.97
2018-03-24T02:44:05.648Z,5.08
2018-03-24T02:45:05.680Z,5.02
2018-03-24T02:46:05.745Z,4.93
2018-03-24T02:47:06.715Z,4.94
2018-03-24T02:48:05.879Z,4.84
2018-03-24T02:49:05.939Z,4.86
2018-03-24T02:50:05.965Z,4.94
2018-03-24T02:51:06.009Z,4.96
2018-03-24T02:52:06.074Z,4.86
2018-03-24T02:53:06.125Z,4.89
2018-03-24T02:54:06.345Z,4.89
2018-03-24T02:55:06.253Z,4.80
2018-03-24T02:56:06.305Z,4.73
2018-03-24T02:57:06.366Z,4.73
2018-03-24T02:58:06.429Z,4.73
2018-03-24T02:59:06.522Z,4.70
2018-03-24T03:00:06.550Z,4.77
2018-03-24T03:01:06.605Z,4.77
2018-03-24T03:02:06.673Z,4.84
2018-03-24T03:03:06.724Z,4.78
2018-03-24T03:04:06.798Z,4.68
2018-03-24T03:05:06.852Z,4.67
2018-03-24T03:06:06.920Z,4.68
2018-03-24T03:07:06.998Z,4.71
2018-03-24T03:08:07.026Z,4.66
2018-03-24T03:09:07.254Z,4.59
2018-03-24T03:10:07.153Z,4.60
2018-03-24T03:11:07.262Z,4.60
2018-03-24T03:12:07.266Z,4.60
2018-03-24T03:13:07.318Z,4.63
2018-03-24T03:14:07.390Z,4.63
2018-03-24T03:15:07.446Z,4.80
2018-03-24T03:16:07.498Z,4.74
2018-03-24T03:17:07.558Z,4.74
2018-03-24T03:18:07.622Z,4.71
2018-03-24T03:19:07.682Z,4.73
2018-03-24T03:20:07.744Z,4.74
2018-03-24T03:21:07.794Z,4.70
2018-03-24T03:22:07.854Z,4.73
2018-03-24T03:23:07.918Z,4.80
2018-03-24T03:24:07.982Z,4.80
2018-03-24T03:25:08.042Z,4.86
2018-03-24T03:26:08.095Z,4.84
2018-03-24T03:27:08.155Z,4.86
2018-03-24T03:28:08.210Z,4.93
2018-03-24T03:29:08.291Z,4.87
2018-03-24T03:30:08.338Z,4.90
2018-03-24T03:31:08.397Z,4.90
2018-03-24T03:32:08.451Z,4.97
2018-03-24T03:33:08.580Z,4.99
2018-03-24T03:34:08.579Z,4.97
2018-03-24T03:35:08.635Z,5.00
2018-03-24T03:36:08.687Z,4.99
2018-03-24T03:37:08.751Z,4.99
2018-03-24T03:38:08.811Z,5.10
2018-03-24T03:39:08.875Z,5.08
2018-03-24T03:40:08.934Z,4.94
2018-03-24T03:41:08.991Z,5.02
2018-03-24T03:42:09.047Z,5.04
2018-03-24T03:43:09.106Z,5.02
2018-03-24T03:44:09.178Z,5.11
2018-03-24T03:45:09.223Z,5.15
2018-03-24T03:46:09.284Z,5.10
2018-03-24T03:47:09.343Z,5.08
2018-03-24T03:48:09.404Z,4.97
2018-03-24T03:49:09.467Z,5.02
2018-03-24T03:50:09.527Z,5.02
2018-03-24T03:51:09.584Z,4.93
2018-03-24T03:52:09.644Z,4.84
2018-03-24T03:53:09.699Z,4.82
2018-03-24T03:54:09.768Z,4.70
2018-03-24T03:55:09.827Z,4.62
2018-03-24T03:56:09.880Z,4.52
2018-03-24T03:57:09.939Z,4.53
2018-03-24T03:58:10.008Z,4.52
2018-03-24T03:59:10.063Z,4.49
2018-03-24T04:00:10.124Z,4.42
2018-03-24T04:01:10.176Z,4.42
2018-03-24T04:02:10.236Z,4.38
2018-03-24T04:03:10.296Z,4.31
2018-03-24T04:04:10.360Z,4.38
2018-03-24T04:05:10.420Z,4.32
2018-03-24T04:06:10.472Z,4.20
2018-03-24T04:07:10.532Z,4.20
2018-03-24T04:08:10.596Z,4.23
2018-03-24T04:09:10.660Z,4.23
2018-03-24T04:10:10.716Z,4.19
2018-03-24T04:11:10.772Z,4.10
2018-03-24T04:12:10.828Z,4.08
2018-03-24T04:13:10.892Z,4.05
2018-03-24T04:14:10.956Z,3.98
2018-03-24T04:15:11.021Z,3.98
2018-03-24T04:16:11.068Z,3.94
2018-03-24T04:17:11.128Z,3.95
2018-03-24T04:18:11.184Z,3.91
2018-03-24T04:19:11.260Z,3.96
2018-03-24T04:20:11.308Z,4.02
2018-03-24T04:21:11.364Z,3.83
2018-03-24T04:22:11.425Z,3.88
2018-03-24T04:23:11.485Z,3.84
2018-03-24T04:24:11.548Z,3.81
2018-03-24T04:25:11.613Z,3.78
2018-03-24T04:26:11.665Z,3.94
2018-03-24T04:27:11.725Z,3.83
2018-03-24T04:28:11.784Z,3.81
2018-03-24T04:29:11.856Z,3.83
2018-03-24T04:30:11.909Z,3.86
2018-03-24T04:31:11.957Z,3.83
2018-03-24T04:32:12.021Z,3.88
2018-03-24T04:33:12.077Z,3.84
2018-03-24T04:34:12.253Z,3.91
2018-03-24T04:35:12.197Z,3.84
2018-03-24T04:36:12.258Z,3.81
2018-03-24T04:37:12.314Z,3.83
2018-03-24T04:38:12.382Z,3.87
2018-03-24T04:39:12.445Z,3.74
2018-03-24T04:40:12.497Z,3.76
2018-03-24T04:41:12.553Z,3.76
2018-03-24T04:42:12.609Z,3.73
2018-03-24T04:43:12.674Z,3.76
2018-03-24T04:44:12.737Z,3.74
2018-03-24T04:45:12.795Z,3.77
2018-03-24T04:46:12.845Z,3.69
2018-03-24T04:47:12.909Z,3.74
2018-03-24T04:48:12.970Z,3.74
2018-03-24T04:49:13.029Z,3.83
2018-03-24T04:50:13.093Z,3.74
2018-03-24T04:51:13.142Z,3.73
2018-03-24T04:52:13.198Z,3.66
2018-03-24T04:53:13.257Z,3.68
2018-03-24T04:54:13.333Z,3.62
2018-03-24T04:55:13.387Z,3.56
2018-03-24T04:56:13.442Z,3.60
2018-03-24T04:57:13.493Z,3.47
2018-03-24T04:58:13.553Z,3.56
2018-03-24T04:59:13.622Z,3.44
2018-03-24T05:00:13.682Z,3.41
2018-03-24T05:01:13.730Z,3.41
2018-03-24T05:02:13.804Z,3.40
2018-03-24T05:03:13.850Z,3.34
2018-03-24T05:04:13.918Z,3.31
2018-03-24T05:05:13.974Z,3.28
2018-03-24T05:06:14.022Z,3.28
2018-03-24T05:07:14.086Z,3.19
2018-03-24T05:08:14.146Z,3.16
2018-03-24T05:09:14.356Z,3.23
2018-03-24T05:10:14.270Z,3.23
2018-03-24T05:11:14.322Z,3.23
2018-03-24T05:12:14.382Z,3.13
2018-03-24T05:13:14.439Z,3.19
2018-03-24T05:14:14.507Z,3.13
2018-03-24T05:15:14.566Z,3.07
2018-03-24T05:16:14.626Z,3.14
2018-03-24T05:17:14.675Z,3.13
2018-03-24T05:18:14.742Z,3.10
2018-03-24T05:19:14.803Z,3.07
2018-03-24T05:20:14.859Z,3.04
2018-03-24T05:21:14.915Z,3.14
2018-03-24T05:22:14.971Z,3.03
2018-03-24T05:23:15.039Z,3.01
2018-03-24T05:24:15.252Z,3.10
2018-03-24T05:25:15.149Z,3.08
2018-03-24T05:26:15.242Z,3.03
2018-03-24T05:27:15.267Z,3.18
2018-03-24T05:28:15.323Z,3.11
2018-03-24T05:29:15.394Z,3.16
2018-03-24T05:30:15.447Z,3.18
2018-03-24T05:31:15.511Z,3.10
2018-03-24T05:32:15.559Z,3.21
2018-03-24T05:33:15.627Z,3.22
2018-03-24T05:34:15.687Z,3.36
2018-03-24T05:35:15.751Z,3.26
2018-03-24T05:36:15.795Z,3.44
2018-03-24T05:37:15.855Z,3.42
2018-03-24T05:38:15.915Z,3.50
2018-03-24T05:39:15.979Z,3.48
2018-03-24T05:40:16.036Z,3.48
2018-03-24T05:41:16.091Z,3.53
2018-03-24T05:42:16.147Z,3.66
2018-03-24T05:43:16.448Z,3.62
2018-03-24T05:44:16.276Z,3.70
2018-03-24T05:45:16.432Z,3.76
2018-03-24T05:46:16.384Z,3.80
2018-03-24T05:47:16.444Z,3.91
2018-03-24T05:48:16.504Z,3.80
2018-03-24T05:49:16.564Z,3.91
2018-03-24T05:50:16.628Z,3.99
2018-03-24T05:51:16.688Z,3.96
2018-03-24T05:52:16.740Z,3.94
2018-03-24T05:53:16.796Z,3.99
2018-03-24T05:54:16.860Z,3.98
2018-03-24T05:55:16.928Z,4.05
2018-03-24T05:56:16.980Z,4.08
2018-03-24T05:57:17.044Z,4.08
2018-03-24T05:58:17.092Z,4.19
2018-03-24T05:59:17.156Z,4.20
2018-03-24T06:00:17.524Z,4.14
2018-03-24T06:01:17.277Z,4.19
2018-03-24T06:02:17.336Z,4.19
2018-03-24T06:03:17.388Z,4.26
2018-03-24T06:04:17.456Z,4.24
2018-03-24T06:05:17.508Z,4.38
2018-03-24T06:06:17.808Z,4.28
2018-03-24T06:07:17.629Z,4.32
2018-03-24T06:08:17.684Z,4.41
2018-03-24T06:09:17.745Z,4.28
2018-03-24T06:10:17.805Z,4.34
2018-03-24T06:11:17.873Z,4.44
2018-03-24T06:12:17.929Z,4.41
2018-03-24T06:13:17.981Z,4.48
2018-03-24T06:14:18.041Z,4.45
2018-03-24T06:15:18.103Z,4.52
2018-03-24T06:16:18.177Z,4.50
2018-03-24T06:17:18.225Z,4.53
2018-03-24T06:18:18.281Z,4.58
2018-03-24T06:19:18.340Z,4.56
2018-03-24T06:20:18.401Z,4.66
2018-03-24T06:21:18.465Z,4.63
2018-03-24T06:22:18.525Z,4.58
2018-03-24T06:23:18.578Z,4.63
2018-03-24T06:24:18.637Z,4.67
2018-03-24T06:25:18.698Z,4.82
2018-03-24T06:26:18.761Z,4.86
2018-03-24T06:27:18.825Z,4.80
2018-03-24T06:28:18.881Z,4.87
2018-03-24T06:29:18.929Z,4.96
2018-03-24T06:30:18.997Z,5.00
2018-03-24T06:31:19.061Z,4.99
2018-03-24T06:32:19.127Z,5.05
2018-03-24T06:33:19.175Z,5.02
2018-03-24T06:34:19.234Z,5.14
2018-03-24T06:35:19.293Z,5.04
2018-03-24T06:36:19.361Z,5.17
2018-03-24T06:37:19.421Z,5.18
2018-03-24T06:38:19.470Z,5.26
2018-03-24T06:39:19.553Z,5.23
2018-03-24T06:40:19.590Z,5.20
2018-03-24T06:41:19.659Z,5.28
2018-03-24T06:42:19.718Z,5.26
2018-03-24T06:43:19.769Z,5.25
2018-03-24T06:44:19.834Z,5.25
2018-03-24T06:45:19.890Z,5.36
2018-03-24T06:46:19.954Z,5.32
2018-03-24T06:47:20.014Z,5.29
2018-03-24T06:48:20.073Z,5.29
2018-03-24T06:49:20.174Z,5.30
2018-03-24T06:50:20.186Z,5.30
2018-03-24T06:51:20.246Z,5.38
2018-03-24T06:52:20.466Z,5.36
2018-03-24T06:53:20.370Z,5.46
2018-03-24T06:54:20.430Z,5.35
2018-03-24T06:55:20.498Z,5.47
2018-03-24T06:56:20.546Z,5.57
2018-03-24T06:57:20.625Z,5.56
2018-03-24T06:58:20.674Z,5.57
2018-03-24T06:59:20.735Z,5.61
2018-03-24T07:00:20.782Z,5.62
2018-03-24T07:01:20.846Z,5.65
2018-03-24T07:02:20.951Z,5.75
2018-03-24T07:03:20.987Z,5.72
2018-03-24T07:04:21.030Z,5.72
2018-03-24T07:05:21.095Z,5.80
2018-03-24T07:06:21.147Z,5.86
2018-03-24T07:07:21.418Z,5.86
2018-03-24T07:08:21.415Z,5.90
2018-03-24T07:09:21.335Z,5.83
2018-03-24T07:10:21.395Z,5.99
2018-03-24T07:11:21.459Z,5.98
2018-03-24T07:12:21.511Z,5.93
2018-03-24T07:13:21.595Z,5.98
2018-03-24T07:14:21.635Z,5.98
2018-03-24T07:15:21.695Z,6.05
2018-03-24T07:16:21.751Z,6.08
2018-03-24T07:17:21.812Z,6.09
2018-03-24T07:18:21.875Z,6.11
2018-03-24T07:19:21.941Z,6.22
2018-03-24T07:20:21.988Z,6.22
2018-03-24T07:21:22.047Z,6.24
2018-03-24T07:22:22.107Z,6.17
2018-03-24T07:23:22.195Z,6.16
2018-03-24T07:24:22.252Z,6.17
2018-03-24T07:25:22.295Z,6.08
2018-03-24T07:26:22.432Z,6.11
2018-03-24T07:27:22.428Z,6.12
2018-03-24T07:28:22.492Z,6.26
2018-03-24T07:29:22.544Z,6.26
2018-03-24T07:30:22.612Z,6.19
2018-03-24T07:31:22.652Z,6.26
2018-03-24T07:32:22.769Z,6.20
2018-03-24T07:33:22.780Z,6.22
2018-03-24T07:34:22.841Z,6.27
2018-03-24T07:35:22.896Z,6.30
2018-03-24T07:36:22.997Z,6.24
2018-03-24T07:37:23.020Z,6.28
2018-03-24T07:38:23.084Z,6.36
2018-03-24T07:39:23.152Z,6.24
2018-03-24T07:40:23.200Z,6.26
2018-03-24T07:41:23.268Z,6.31
2018-03-24T07:42:23.316Z,6.19
2018-03-24T07:43:23.411Z,6.27
2018-03-24T07:44:23.444Z,6.20
2018-03-24T07:45:23.553Z,6.22
2018-03-24T07:46:23.556Z,6.24
2018-03-24T07:47:23.612Z,6.26
2018-03-24T07:48:23.684Z,6.30
2018-03-24T07:49:23.744Z,6.35
2018-03-24T07:50:23.792Z,6.41
2018-03-24T07:51:23.865Z,6.51
2018-03-24T07:52:23.928Z,6.54
2018-03-24T07:53:23.981Z,6.57
2018-03-24T07:54:24.117Z,6.59
2018-03-24T07:55:24.096Z,6.57
2018-03-24T07:56:24.169Z,6.66
2018-03-24T07:57:24.237Z,6.57
2018-03-24T07:58:24.424Z,6.57
2018-03-24T07:59:24.341Z,6.63
2018-03-24T08:00:24.393Z,6.66
2018-03-24T08:01:24.465Z,6.66
2018-03-24T08:02:24.517Z,6.63
2018-03-24T08:03:24.592Z,6.74
2018-03-24T08:04:24.641Z,6.75
2018-03-24T08:05:24.761Z,6.81
2018-03-24T08:06:24.769Z,6.81
2018-03-24T08:07:24.809Z,6.84
2018-03-24T08:08:24.889Z,6.89
2018-03-24T08:09:24.949Z,6.96
2018-03-24T08:10:24.989Z,7.03
2018-03-24T08:11:25.057Z,7.00
2018-03-24T08:12:25.121Z,6.92
2018-03-24T08:13:25.181Z,6.95
2018-03-24T08:14:25.298Z,7.06
2018-03-24T08:15:25.294Z,7.05
2018-03-24T08:16:25.358Z,7.03
2018-03-24T08:17:25.418Z,7.17
2018-03-24T08:18:25.526Z,7.11
2018-03-24T08:19:25.573Z,7.15
2018-03-24T08:20:25.625Z,7.15
2018-03-24T08:21:25.666Z,7.11
2018-03-24T08:22:25.742Z,7.20
2018-03-24T08:23:25.806Z,7.20
2018-03-24T08:24:25.930Z,7.20
2018-03-24T08:25:25.922Z,7.21
2018-03-24T08:26:25.958Z,7.20
2018-03-24T08:27:26.034Z,7.24
2018-03-24T08:28:26.094Z,7.21
2018-03-24T08:29:26.166Z,7.33
2018-03-24T08:30:26.271Z,7.32
2018-03-24T08:31:26.266Z,7.35
2018-03-24T08:32:26.334Z,7.36
2018-03-24T08:33:26.396Z,7.36
2018-03-24T08:34:26.466Z,7.45
2018-03-24T08:35:26.510Z,7.47
2018-03-24T08:36:26.566Z,7.51
2018-03-24T08:37:26.618Z,7.56
2018-03-24T08:38:26.712Z,7.57
2018-03-24T08:39:26.775Z,7.50
2018-03-24T08:40:26.814Z,7.58
2018-03-24T08:41:26.890Z,7.66
2018-03-24T08:42:26.959Z,7.66
2018-03-24T08:43:27.010Z,7.60
2018-03-24T08:44:27.059Z,7.67
2018-03-24T08:45:27.110Z,7.69
2018-03-24T08:46:27.179Z,7.76
2018-03-24T08:47:27.243Z,7.75
2018-03-24T08:48:28.023Z,7.73
2018-03-24T08:49:27.671Z,7.82
2018-03-24T08:50:27.459Z,7.85
2018-03-24T08:51:27.515Z,7.93
2018-03-24T08:52:27.549Z,7.83
2018-03-24T08:53:27.623Z,7.82
2018-03-24T08:54:27.715Z,7.87
2018-03-24T08:55:27.783Z,7.95
2018-03-24T08:56:27.816Z,7.93
2018-03-24T08:57:27.908Z,7.97
2018-03-24T08:58:27.963Z,7.98
2018-03-24T08:59:27.989Z,8.08
2018-03-24T09:00:28.107Z,8.08
2018-03-24T09:01:28.172Z,8.06
2018-03-24T09:02:28.464Z,8.06
2018-03-24T09:03:28.240Z,8.08
2018-03-24T09:04:28.455Z,8.09
2018-03-24T09:05:28.568Z,8.13
2018-03-24T09:06:28.704Z,8.10
2018-03-24T09:07:28.576Z,8.13
2018-03-24T09:08:28.564Z,8.27
2018-03-24T09:09:28.632Z,8.19
2018-03-24T09:10:28.656Z,8.19
2018-03-24T09:11:28.712Z,8.26
2018-03-24T09:12:28.768Z,8.23
2018-03-24T09:13:28.820Z,8.31
2018-03-24T09:14:28.896Z,8.27
2018-03-24T09:15:29.000Z,8.33
2018-03-24T09:16:29.005Z,8.36
2018-03-24T09:17:29.074Z,8.44
2018-03-24T09:18:29.120Z,8.45
2018-03-24T09:19:29.220Z,8.52
2018-03-24T09:20:29.244Z,8.45
2018-03-24T09:21:29.304Z,8.48
2018-03-24T09:22:29.382Z,8.56
2018-03-24T09:23:29.440Z,8.56
2018-03-24T09:24:29.504Z,8.60
2018-03-24T09:25:29.572Z,8.64
2018-03-24T09:26:29.613Z,8.67
2018-03-24T09:27:29.733Z,8.63
2018-03-24T09:28:29.756Z,8.64
2018-03-24T09:29:29.848Z,8.69
2018-03-24T09:30:29.877Z,8.64
2018-03-24T09:31:29.933Z,8.74
2018-03-24T09:32:29.997Z,8.67
2018-03-24T09:33:30.068Z,8.74
2018-03-24T09:34:30.477Z,8.79
2018-03-24T09:35:30.165Z,8.79
2018-03-24T09:36:30.305Z,8.85
2018-03-24T09:37:30.285Z,8.78
2018-03-24T09:38:30.397Z,8.89
2018-03-24T09:39:30.402Z,8.91
2018-03-24T09:40:30.529Z,8.92
2018-03-24T09:41:30.557Z,8.97
2018-03-24T09:42:30.599Z,8.95
2018-03-24T09:43:30.681Z,9.04
2018-03-24T09:44:30.734Z,9.03
2018-03-24T09:45:30.794Z,9.04
2018-03-24T09:46:30.873Z,9.10
2018-03-24T09:47:30.942Z,9.10
2018-03-24T09:48:31.129Z,9.08
2018-03-24T09:49:31.038Z,9.13
2018-03-24T09:50:31.106Z,9.19
2018-03-24T09:51:31.162Z,9.14
2018-03-24T09:52:31.214Z,9.11
2018-03-24T09:53:31.298Z,9.23
2018-03-24T09:54:31.418Z,9.28
2018-03-24T09:55:31.436Z,9.26
2018-03-24T09:56:31.474Z,9.22
2018-03-24T09:57:31.522Z,9.22
2018-03-24T09:58:31.650Z,9.32
2018-03-24T09:59:31.650Z,9.39
2018-03-24T10:00:31.734Z,9.32
2018-03-24T10:01:31.781Z,9.36
2018-03-24T10:02:31.830Z,9.40
2018-03-24T10:03:31.882Z,9.46
2018-03-24T10:04:31.954Z,9.50
2018-03-24T10:05:32.047Z,9.48
2018-03-24T10:06:32.084Z,9.47
2018-03-24T10:07:32.134Z,9.55
2018-03-24T10:08:32.266Z,9.54
2018-03-24T10:09:32.359Z,9.59
2018-03-24T10:10:32.342Z,9.61
2018-03-24T10:11:32.499Z,9.68
2018-03-24T10:12:32.447Z,9.72
2018-03-24T10:13:32.539Z,9.73
2018-03-24T10:14:32.570Z,9.74
2018-03-24T10:15:32.623Z,9.83
2018-03-24T10:16:32.710Z,9.83
2018-03-24T10:17:32.746Z,9.86
2018-03-24T10:18:32.803Z,9.79
2018-03-24T10:19:32.883Z,9.89
2018-03-24T10:20:32.930Z,9.80
2018-03-24T10:21:33.003Z,9.82
2018-03-24T10:22:33.067Z,9.92
2018-03-24T10:23:33.119Z,9.89
2018-03-24T10:24:33.187Z,10.01
2018-03-24T10:25:33.231Z,9.99
2018-03-24T10:26:33.319Z,10.04
2018-03-24T10:27:33.363Z,10.09
2018-03-24T10:28:33.423Z,10.09
2018-03-24T10:29:33.483Z,10.16
2018-03-24T10:30:33.564Z,10.26
2018-03-24T10:31:33.627Z,10.19
2018-03-24T10:32:33.689Z,10.22
2018-03-24T10:33:33.739Z,10.35
2018-03-24T10:34:33.796Z,10.38
2018-03-24T10:35:33.880Z,10.35
2018-03-24T10:36:33.939Z,10.46
2018-03-24T10:37:33.991Z,10.53
2018-03-24T10:38:34.047Z,10.53
2018-03-24T10:39:34.112Z,10.61
2018-03-24T10:40:34.172Z,10.61
2018-03-24T10:41:34.240Z,10.72
2018-03-24T10:42:34.363Z,10.71
2018-03-24T10:43:34.364Z,10.82
2018-03-24T10:44:34.440Z,10.75
2018-03-24T10:45:34.523Z,10.86
2018-03-24T10:46:34.552Z,10.92
2018-03-24T10:47:34.628Z,10.94
2018-03-24T10:48:34.676Z,11.08
2018-03-24T10:49:34.950Z,11.10
2018-03-24T10:50:34.796Z,11.12
2018-03-24T10:51:34.976Z,11.17
2018-03-24T10:52:34.932Z,11.19
2018-03-24T10:53:35.000Z,11.23
2018-03-24T10:54:35.060Z,11.22
2018-03-24T10:55:35.140Z,11.30
2018-03-24T10:56:35.176Z,11.43
2018-03-24T10:57:35.320Z,11.41
2018-03-24T10:58:35.320Z,11.50
2018-03-24T10:59:35.360Z,11.51
2018-03-24T11:00:35.416Z,11.51
2018-03-24T11:01:36.692Z,11.57
2018-03-24T11:02:35.561Z,11.60
2018-03-24T11:03:37.240Z,11.66
2018-03-24T11:04:35.673Z,11.66
2018-03-24T11:05:35.773Z,11.77
2018-03-24T11:06:35.944Z,11.81
2018-03-24T11:07:35.873Z,11.81
2018-03-24T11:08:36.437Z,11.84
2018-03-24T11:09:36.017Z,11.88
2018-03-24T11:10:36.187Z,11.94
2018-03-24T11:11:36.124Z,11.97
2018-03-24T11:12:36.173Z,12.03
2018-03-24T11:13:36.365Z,12.00
2018-03-24T11:14:36.300Z,12.06
2018-03-24T11:15:36.369Z,12.02
2018-03-24T11:16:36.437Z,12.03
2018-03-24T11:17:36.497Z,12.02
2018-03-24T11:18:36.561Z,12.13
2018-03-24T11:19:36.629Z,12.20
2018-03-24T11:20:36.689Z,12.32
2018-03-24T11:21:36.753Z,12.35
2018-03-24T11:22:36.814Z,12.32
2018-03-24T11:23:36.881Z,12.39
2018-03-24T11:24:36.945Z,12.45
2018-03-24T11:25:37.005Z,12.50
2018-03-24T11:26:37.089Z,12.50
2018-03-24T11:27:37.136Z,12.50
2018-03-24T11:28:37.349Z,12.57
2018-03-24T11:29:37.261Z,12.76
2018-03-24T11:30:37.333Z,12.91
2018-03-24T11:31:37.385Z,13.65
2018-03-24T11:32:37.453Z,14.54
2018-03-24T11:33:37.650Z,15.57
2018-03-24T11:34:37.610Z,16.26
2018-03-24T11:35:37.658Z,16.84
2018-03-24T11:36:37.706Z,17.72
2018-03-24T11:37:37.778Z,18.56
2018-03-24T11:38:37.842Z,19.11
2018-03-24T11:39:37.914Z,19.63
2018-03-24T11:40:37.986Z,20.13
2018-03-24T11:41:38.050Z,20.31
2018-03-24T11:42:38.110Z,20.62
2018-03-24T11:43:38.178Z,20.78
2018-03-24T11:44:38.358Z,20.81
2018-03-24T11:45:38.318Z,20.84
2018-03-24T11:46:38.390Z,21.20
2018-03-24T11:47:38.458Z,21.24
2018-03-24T11:48:38.526Z,21.33
2018-03-24T11:49:38.610Z,21.42
2018-03-24T11:50:38.678Z,21.46
2018-03-24T11:51:38.738Z,21.73
2018-03-24T11:52:38.810Z,21.92
2018-03-24T11:53:38.882Z,22.14
2018-03-24T11:54:38.958Z,22.20
2018-03-24T11:55:39.037Z,22.43
2018-03-24T11:56:39.136Z,22.43
2018-03-24T11:57:39.174Z,22.36
2018-03-24T11:58:39.250Z,22.50
2018-03-24T11:59:39.373Z,22.47
2018-03-24T12:00:39.389Z,22.60
2018-03-24T12:01:39.459Z,22.54
2018-03-24T12:02:39.531Z,22.51
2018-03-24T12:03:39.610Z,21.88
2018-03-24T12:04:39.687Z,21.57
2018-03-24T12:05:39.762Z,21.61
2018-03-24T12:06:39.827Z,21.69
2018-03-24T12:07:39.899Z,21.58
2018-03-24T12:08:39.983Z,21.15
2018-03-24T12:09:40.055Z,20.34
2018-03-24T12:10:40.131Z,19.51
2018-03-24T12:11:40.197Z,18.80
2018-03-24T12:12:40.259Z,19.84
2018-03-24T12:13:40.435Z,20.55
2018-03-24T12:14:40.411Z,21.35
2018-03-24T12:15:40.488Z,19.91
2018-03-24T12:16:40.560Z,19.09
2018-03-24T12:17:40.627Z,18.50
2018-03-24T12:18:40.696Z,18.03
2018-03-24T12:19:40.779Z,17.54
2018-03-24T12:20:40.840Z,17.22
2018-03-24T12:21:40.907Z,16.90
2018-03-24T12:22:40.979Z,16.72
2018-03-24T12:23:41.048Z,16.75
2018-03-24T12:24:41.271Z,16.54
2018-03-24T12:25:41.187Z,16.39
2018-03-24T12:26:41.265Z,16.24
2018-03-24T12:27:41.324Z,16.17
2018-03-24T12:28:41.394Z,16.24
2018-03-24T12:29:41.468Z,17.09
2018-03-24T12:30:41.536Z,18.43
2018-03-24T12:31:41.596Z,19.84
2018-03-24T12:32:41.665Z,20.34
2018-03-24T12:33:41.737Z,20.36
2018-03-24T12:34:41.808Z,19.92
2018-03-24T12:35:41.879Z,19.08
2018-03-24T12:36:41.940Z,18.56
2018-03-24T12:37:42.012Z,18.04
2018-03-24T12:38:42.088Z,17.78
2018-03-24T12:39:42.319Z,17.56
2018-03-24T12:40:42.240Z,17.31
2018-03-24T12:41:42.284Z,17.02
2018-03-24T12:42:42.356Z,16.81
2018-03-24T12:43:42.435Z,16.83
2018-03-24T12:44:42.496Z,16.43
2018-03-24T12:45:42.570Z,16.41
2018-03-24T12:46:42.633Z,16.26
2018-03-24T12:47:42.696Z,16.16
2018-03-24T12:48:42.764Z,16.04
2018-03-24T12:49:42.844Z,15.88
2018-03-24T12:50:43.008Z,15.90
2018-03-24T12:51:42.969Z,16.00
2018-03-24T12:52:43.032Z,15.97
2018-03-24T12:53:43.101Z,15.86
2018-03-24T12:54:43.328Z,15.70
2018-03-24T12:55:43.240Z,15.58
2018-03-24T12:56:43.305Z,16.56
2018-03-24T12:57:43.381Z,18.52
2018-03-24T12:58:43.442Z,19.99
2018-03-24T12:59:43.517Z,20.84
2018-03-24T13:00:43.581Z,21.61
2018-03-24T13:01:43.644Z,21.62
2018-03-24T13:02:43.713Z,20.97
2018-03-24T13:03:43.782Z,19.94
2018-03-24T13:04:43.856Z,20.55
2018-03-24T13:05:43.925Z,21.51
2018-03-24T13:06:43.987Z,22.39
2018-03-24T13:07:44.059Z,23.13
2018-03-24T13:08:44.121Z,23.61
2018-03-24T13:09:44.366Z,24.01
2018-03-24T13:10:44.265Z,24.50
2018-03-24T13:11:44.333Z,24.69
2018-03-24T13:12:44.406Z,24.68
2018-03-24T13:13:44.481Z,24.66